createdAt,value
2018-04-16T00:00:25.518Z,90.53
2018-04-16T00:02:51.603Z,89.97
2018-04-16T00:05:17.626Z,90.52
2018-04-16T00:07:43.758Z,91.19
2018-04-16T00:10:09.837Z,90.58
2018-04-16T00:12:35.891Z,90.76
2018-04-16T00:15:01.944Z,91.65
2018-04-16T00:17:28.024Z,91.70
2018-04-16T00:19:54.149Z,91.21
2018-04-16T00:22:20.409Z,91.10
2018-04-16T00:24:46.457Z,90.36
2018-04-16T00:27:12.570Z,91.16
2018-04-16T00:29:38.722Z,91.33
2018-04-16T00:32:11.743Z,91.42
2018-04-16T00:34:43.829Z,91.32
2018-04-16T00:37:15.975Z,91.55
2018-04-16T00:39:48.124Z,91.37
2018-04-16T00:42:20.225Z,91.45
2018-04-16T00:44:52.403Z,91.09
2018-04-16T00:50:26.173Z,90.75
2018-04-16T00:52:58.354Z,90.97
2018-04-16T00:55:30.435Z,90.60
2018-04-16T00:58:02.529Z,91.11
2018-04-16T01:00:34.897Z,91.43
2018-04-16T01:03:07.020Z,91.23
2018-04-16T01:05:39.224Z,91.21
2018-04-16T01:08:11.415Z,91.42
2018-04-16T01:10:43.424Z,90.99
2018-04-16T01:13:15.458Z,91.03
2018-04-16T01:15:47.649Z,90.92
2018-04-16T01:18:19.811Z,90.90
2018-04-16T01:20:51.970Z,90.84
2018-04-16T01:23:24.245Z,91.15
2018-04-16T01:25:56.386Z,90.98
2018-04-16T01:28:28.531Z,91.64
2018-04-16T01:31:00.646Z,91.84
2018-04-16T01:33:32.772Z,92.08
2018-04-16T01:36:04.885Z,92.14
2018-04-16T01:38:36.941Z,92.56
2018-04-16T01:41:08.964Z,92.37
2018-04-16T01:43:41.073Z,92.23
2018-04-16T01:46:13.226Z,92.21
2018-04-16T01:48:45.263Z,92.10
2018-04-16T01:51:17.368Z,92.23
2018-04-16T01:56:57.033Z,92.83
2018-04-16T01:59:29.182Z,93.00
2018-04-16T02:02:01.274Z,92.79
2018-04-16T02:04:33.352Z,92.79
2018-04-16T02:07:05.432Z,93.34
2018-04-16T02:09:37.476Z,92.97
2018-04-16T02:12:09.536Z,93.14
2018-04-16T02:14:41.732Z,93.61
2018-04-16T02:17:13.879Z,93.65
2018-04-16T02:19:46.003Z,93.64
2018-04-16T02:25:23.668Z,93.75
2018-04-16T02:27:55.841Z,93.79
2018-04-16T02:30:27.864Z,93.50
2018-04-16T02:33:00.060Z,93.83
2018-04-16T02:35:32.213Z,94.13
2018-04-16T02:38:04.273Z,94.02
2018-04-16T02:40:36.438Z,94.31
2018-04-16T02:43:08.420Z,94.50
2018-04-16T02:45:40.522Z,94.74
2018-04-16T02:51:12.220Z,93.28
2018-04-16T02:53:44.286Z,93.58
2018-04-16T02:56:16.397Z,93.88
2018-04-16T02:58:48.533Z,94.22
2018-04-16T03:01:20.718Z,94.06
2018-04-16T03:03:52.863Z,94.72
2018-04-16T03:06:24.954Z,94.51
2018-04-16T03:08:56.993Z,94.93
2018-04-16T03:11:29.269Z,94.74
2018-04-16T03:14:01.216Z,95.26
2018-04-16T03:16:33.288Z,95.00
2018-04-16T03:19:05.459Z,94.69
2018-04-16T03:21:37.630Z,94.29
2018-04-16T03:24:09.708Z,94.51
2018-04-16T03:26:41.869Z,94.98
2018-04-16T03:29:13.882Z,94.31
2018-04-16T03:31:46.762Z,94.41
2018-04-16T03:34:18.846Z,94.53
2018-04-16T03:36:50.952Z,94.68
2018-04-16T03:39:22.905Z,94.76
2018-04-16T03:41:54.989Z,94.10
2018-04-16T03:44:27.004Z,95.07
2018-04-16T03:46:59.047Z,94.24
2018-04-16T03:49:31.150Z,94.82
2018-04-16T03:52:12.158Z,95.06
2018-04-16T03:54:38.232Z,94.82
2018-04-16T03:57:04.269Z,95.10
2018-04-16T03:59:30.301Z,95.23
2018-04-16T04:01:56.360Z,95.01
2018-04-16T04:04:22.358Z,94.89
2018-04-16T04:06:48.401Z,94.66
2018-04-16T04:09:14.549Z,94.84
2018-04-16T04:11:40.536Z,95.21
2018-04-16T04:14:06.557Z,95.17
2018-04-16T04:16:32.701Z,95.01
2018-04-16T04:18:59.309Z,95.19
2018-04-16T04:21:25.454Z,95.29
2018-04-16T04:24:03.546Z,95.62
2018-04-16T04:26:41.652Z,95.73
2018-04-16T04:29:19.764Z,95.62
2018-04-16T04:31:45.789Z,95.06
2018-04-16T04:34:11.792Z,95.40
2018-04-16T04:36:37.838Z,95.32
2018-04-16T04:39:03.959Z,95.57
2018-04-16T04:41:29.988Z,95.38
2018-04-16T04:43:56.008Z,95.34
2018-04-16T04:46:22.027Z,94.77
2018-04-16T04:48:48.050Z,94.89
2018-04-16T04:51:14.091Z,95.10
2018-04-16T04:53:40.169Z,95.04
2018-04-16T04:56:06.169Z,95.17
2018-04-16T04:58:32.320Z,94.60
2018-04-16T05:00:58.343Z,95.18
2018-04-16T05:03:24.494Z,94.86
2018-04-16T05:05:50.512Z,94.68
2018-04-16T05:08:17.480Z,94.53
2018-04-16T05:10:43.621Z,94.25
2018-04-16T05:13:09.667Z,94.27
2018-04-16T05:15:35.692Z,94.87
2018-04-16T05:18:01.702Z,95.22
2018-04-16T05:20:27.720Z,94.41
2018-04-16T05:22:53.733Z,91.74
2018-04-16T05:25:19.757Z,94.71
2018-04-16T05:27:45.827Z,95.19
2018-04-16T05:30:11.904Z,95.36
2018-04-16T05:32:38.003Z,95.36
2018-04-16T05:35:04.044Z,94.85
2018-04-16T05:37:30.125Z,94.95
2018-04-16T05:39:56.168Z,94.67
2018-04-16T05:42:22.420Z,94.40
2018-04-16T05:44:48.506Z,94.17
2018-04-16T05:47:15.592Z,94.16
2018-04-16T05:49:41.609Z,94.52
2018-04-16T05:52:07.636Z,94.38
2018-04-16T05:54:33.726Z,94.38
2018-04-16T05:56:59.782Z,94.24
2018-04-16T05:59:25.786Z,93.98
2018-04-16T06:01:51.796Z,94.08
2018-04-16T06:04:17.809Z,93.91
2018-04-16T06:06:43.842Z,93.80
2018-04-16T06:09:09.841Z,93.36
2018-04-16T06:11:35.863Z,92.73
2018-04-16T06:14:01.867Z,92.96
2018-04-16T06:16:27.917Z,92.99
2018-04-16T06:18:53.938Z,93.56
2018-04-16T06:21:19.977Z,93.97
2018-04-16T06:23:45.990Z,93.52
2018-04-16T06:26:12.048Z,93.68
2018-04-16T06:28:38.089Z,93.54
2018-04-16T06:31:04.104Z,93.29
2018-04-16T06:33:30.098Z,92.52
2018-04-16T06:35:56.213Z,91.93
2018-04-16T06:38:22.245Z,92.58
2018-04-16T06:40:48.299Z,92.28
2018-04-16T06:43:14.428Z,92.22
2018-04-16T06:45:40.469Z,92.10
2018-04-16T06:48:06.516Z,91.75
2018-04-16T06:50:32.510Z,90.80
2018-04-16T06:52:58.565Z,90.62
2018-04-16T06:55:24.571Z,90.28
2018-04-16T06:57:50.577Z,90.45
2018-04-16T07:00:16.762Z,89.99
2018-04-16T07:02:42.855Z,89.72
2018-04-16T07:05:08.870Z,89.84
2018-04-16T07:07:34.959Z,89.35
2018-04-16T07:10:01.095Z,89.67
2018-04-16T07:12:27.219Z,89.33
2018-04-16T07:14:53.251Z,87.61
2018-04-16T07:17:19.305Z,87.36
2018-04-16T07:19:45.453Z,86.62
2018-04-16T07:22:11.582Z,85.67
2018-04-16T07:24:37.604Z,85.96
2018-04-16T07:27:03.628Z,85.97
2018-04-16T07:29:29.660Z,84.84
2018-04-16T07:31:55.701Z,84.70
2018-04-16T07:34:21.704Z,84.17
2018-04-16T07:36:47.887Z,84.27
2018-04-16T07:39:13.971Z,83.36
2018-04-16T07:41:40.016Z,82.76
2018-04-16T07:44:06.006Z,81.57
2018-04-16T07:46:32.023Z,79.49
2018-04-16T07:48:58.056Z,76.91
2018-04-16T07:51:24.165Z,80.62
2018-04-16T07:53:50.192Z,79.06
2018-04-16T07:56:16.259Z,79.16
2018-04-16T07:58:42.301Z,79.86
2018-04-16T08:01:08.368Z,77.01
2018-04-16T08:03:34.389Z,76.40
2018-04-16T08:06:00.551Z,75.15
2018-04-16T08:08:27.330Z,75.40
2018-04-16T08:10:53.410Z,75.33
2018-04-16T08:13:19.498Z,74.10
2018-04-16T08:15:45.569Z,74.06
2018-04-16T08:18:11.602Z,73.13
2018-04-16T08:20:37.601Z,71.97
2018-04-16T08:23:03.628Z,69.68
2018-04-16T08:25:29.645Z,71.61
2018-04-16T08:27:55.655Z,70.84
2018-04-16T08:30:21.664Z,69.54
2018-04-16T08:32:47.673Z,69.08
2018-04-16T08:35:13.814Z,65.41
2018-04-16T08:37:39.831Z,67.05
2018-04-16T08:40:05.881Z,67.60
2018-04-16T08:42:31.869Z,66.23
2018-04-16T08:44:57.864Z,68.66
2018-04-16T08:47:23.935Z,68.43
2018-04-16T08:49:49.957Z,69.85
2018-04-16T08:52:15.953Z,66.89
2018-04-16T08:54:41.966Z,64.54
2018-04-16T08:57:55.810Z,63.60
2018-04-16T09:00:28.632Z,66.30
2018-04-16T09:02:54.752Z,65.18
2018-04-16T09:05:20.995Z,66.83
2018-04-16T09:07:47.130Z,67.12
2018-04-16T09:10:13.240Z,66.13
2018-04-16T09:12:39.257Z,65.98
2018-04-16T09:15:05.288Z,65.73
2018-04-16T09:17:31.401Z,65.19
2018-04-16T09:19:57.475Z,62.89
2018-04-16T09:22:23.524Z,59.10
2018-04-16T09:24:49.508Z,57.74
2018-04-16T09:27:15.583Z,54.50
2018-04-16T09:29:41.688Z,56.63
2018-04-16T09:32:07.704Z,56.40
2018-04-16T09:34:33.764Z,55.85
2018-04-16T09:36:59.830Z,55.31
2018-04-16T09:39:25.842Z,55.61
2018-04-16T09:41:51.885Z,56.49
2018-04-16T09:44:17.964Z,58.74
2018-04-16T09:46:43.976Z,57.86
2018-04-16T09:49:10.060Z,58.32
2018-04-16T09:51:36.142Z,57.71
2018-04-16T09:54:02.169Z,59.65
2018-04-16T09:56:28.186Z,57.53
2018-04-16T09:58:54.259Z,54.75
2018-04-16T10:01:20.331Z,54.88
2018-04-16T10:03:46.351Z,53.73
2018-04-16T10:06:12.406Z,51.11
2018-04-16T10:08:38.418Z,52.91
2018-04-16T10:11:04.532Z,52.24
2018-04-16T10:13:30.561Z,54.20
2018-04-16T10:15:56.576Z,53.10
2018-04-16T10:18:22.682Z,53.53
2018-04-16T10:20:48.807Z,52.24
2018-04-16T10:23:14.831Z,53.29
2018-04-16T10:25:40.860Z,55.03
2018-04-16T10:28:06.938Z,55.89
2018-04-16T10:30:33.096Z,54.87
2018-04-16T10:32:59.165Z,55.11
2018-04-16T10:35:25.188Z,54.77
2018-04-16T10:37:51.253Z,52.01
2018-04-16T10:40:17.454Z,47.28
2018-04-16T10:42:43.470Z,46.10
2018-04-16T10:45:09.530Z,45.02
2018-04-16T10:47:35.600Z,45.50
2018-04-16T10:50:01.676Z,48.49
2018-04-16T10:52:27.714Z,50.16
2018-04-16T10:54:53.747Z,50.30
2018-04-16T10:57:19.815Z,47.62
2018-04-16T10:59:45.848Z,46.72
2018-04-16T11:02:11.904Z,45.72
2018-04-16T11:04:37.989Z,41.80
2018-04-16T11:07:03.999Z,39.81
2018-04-16T11:09:30.024Z,43.09
2018-04-16T11:11:56.012Z,43.64
2018-04-16T11:14:22.065Z,45.15
2018-04-16T11:16:48.153Z,47.44
2018-04-16T11:19:14.211Z,49.19
2018-04-16T11:21:40.194Z,46.07
2018-04-16T11:24:06.256Z,48.44
2018-04-16T11:26:32.372Z,50.31
2018-04-16T11:28:58.441Z,45.68
2018-04-16T11:31:24.579Z,44.69
2018-04-16T11:33:50.700Z,42.92
2018-04-16T11:36:16.852Z,42.10
2018-04-16T11:38:42.875Z,41.48
2018-04-16T11:41:09.003Z,40.41
2018-04-16T11:43:35.132Z,39.29
2018-04-16T11:46:01.170Z,39.05
2018-04-16T11:48:27.243Z,40.24
2018-04-16T11:50:53.380Z,39.36
2018-04-16T11:53:19.500Z,37.96
2018-04-16T11:55:45.592Z,38.62
2018-04-16T11:58:11.649Z,40.92
2018-04-16T12:00:37.739Z,38.33
2018-04-16T12:03:03.777Z,39.83
2018-04-16T12:05:29.806Z,41.04
2018-04-16T12:07:55.831Z,41.08
2018-04-16T12:10:21.937Z,41.07
2018-04-16T12:12:47.952Z,41.77
2018-04-16T12:15:13.976Z,43.30
2018-04-16T12:17:40.022Z,44.10
2018-04-16T12:20:06.079Z,42.89
2018-04-16T12:22:32.154Z,46.50
2018-04-16T12:24:58.148Z,47.00
2018-04-16T12:27:24.181Z,45.21
2018-04-16T12:29:50.184Z,41.69
2018-04-16T12:32:16.200Z,45.64
2018-04-16T12:34:42.243Z,45.28
2018-04-16T12:37:08.229Z,42.45
2018-04-16T12:39:34.294Z,40.16
2018-04-16T12:42:00.324Z,39.83
2018-04-16T12:44:26.417Z,37.70
2018-04-16T12:46:52.428Z,39.67
2018-04-16T12:49:18.460Z,40.24
2018-04-16T12:51:44.624Z,41.82
2018-04-16T12:54:10.734Z,41.76
2018-04-16T12:56:36.758Z,42.02
2018-04-16T12:59:02.793Z,40.45
2018-04-16T13:01:28.975Z,38.63
2018-04-16T13:03:55.033Z,38.10
2018-04-16T13:06:21.156Z,37.65
2018-04-16T13:08:47.240Z,37.01
2018-04-16T13:11:13.486Z,36.34
2018-04-16T13:13:39.552Z,36.37
2018-04-16T13:16:05.741Z,35.77
2018-04-16T13:18:31.783Z,35.18
2018-04-16T13:20:57.883Z,36.35
2018-04-16T13:23:23.929Z,34.92
2018-04-16T13:25:49.946Z,35.23
2018-04-16T13:28:15.981Z,33.55
2018-04-16T13:30:42.007Z,33.68
2018-04-16T13:33:08.016Z,33.49
2018-04-16T13:35:34.152Z,33.10
2018-04-16T13:38:00.178Z,34.58
2018-04-16T13:40:26.161Z,33.67
2018-04-16T13:42:52.247Z,32.64
2018-04-16T13:45:18.344Z,31.37
2018-04-16T13:47:44.349Z,30.84
2018-04-16T13:50:10.380Z,31.66
2018-04-16T13:52:36.378Z,31.10
2018-04-16T13:55:02.411Z,31.97
2018-04-16T13:57:28.441Z,32.81
2018-04-16T13:59:54.502Z,32.27
2018-04-16T14:02:20.513Z,33.01
2018-04-16T14:04:46.622Z,31.75
2018-04-16T14:07:12.809Z,31.74
2018-04-16T14:09:38.834Z,31.58
2018-04-16T14:12:04.853Z,31.18
2018-04-16T14:14:30.948Z,30.77
2018-04-16T14:16:57.043Z,30.98
2018-04-16T14:19:23.115Z,32.11
2018-04-16T14:21:49.137Z,31.57
2018-04-16T14:24:15.311Z,30.90
2018-04-16T14:26:41.373Z,31.18
2018-04-16T14:29:07.445Z,31.29
2018-04-16T14:31:33.512Z,30.46
2018-04-16T14:33:59.704Z,31.12
2018-04-16T14:36:25.743Z,30.44
2018-04-16T14:38:51.787Z,28.96
2018-04-16T14:41:17.801Z,28.83
2018-04-16T14:43:43.820Z,27.54
2018-04-16T14:46:09.910Z,28.86
2018-04-16T14:48:35.957Z,28.61
2018-04-16T14:51:02.013Z,29.85
2018-04-16T14:53:28.062Z,30.18
2018-04-16T14:55:54.121Z,31.61
2018-04-16T14:58:20.132Z,30.57
2018-04-16T15:00:46.260Z,31.64
2018-04-16T15:03:12.882Z,30.21
2018-04-16T15:05:38.948Z,30.00
2018-04-16T15:08:04.995Z,29.43
2018-04-16T15:10:31.119Z,29.72
2018-04-16T15:12:57.168Z,30.97
2018-04-16T15:15:23.240Z,31.61
2018-04-16T15:17:49.343Z,31.46
2018-04-16T15:20:15.383Z,30.97
2018-04-16T15:22:41.515Z,30.42
2018-04-16T15:25:07.595Z,29.96
2018-04-16T15:27:33.654Z,29.01
2018-04-16T15:29:59.701Z,27.85
2018-04-16T15:32:26.054Z,29.11
2018-04-16T15:34:52.077Z,28.06
2018-04-16T15:37:18.113Z,26.87
2018-04-16T15:39:44.260Z,26.65
2018-04-16T15:42:10.321Z,25.72
2018-04-16T15:44:37.175Z,25.77
2018-04-16T15:47:03.268Z,24.54
2018-04-16T15:49:29.398Z,25.25
2018-04-16T15:51:55.510Z,26.97
2018-04-16T15:54:21.532Z,27.53
2018-04-16T15:56:47.669Z,29.18
2018-04-16T15:59:13.749Z,29.25
2018-04-16T16:01:39.772Z,29.64
2018-04-16T16:04:05.761Z,32.24
2018-04-16T16:06:31.836Z,34.22
2018-04-16T16:08:57.882Z,36.89
2018-04-16T16:11:23.861Z,38.76
2018-04-16T16:13:50.020Z,39.59
2018-04-16T16:16:16.025Z,35.84
2018-04-16T16:18:42.083Z,32.56
2018-04-16T16:21:08.115Z,30.60
2018-04-16T16:23:34.137Z,31.20
2018-04-16T16:26:00.144Z,30.95
2018-04-16T16:28:26.200Z,29.55
2018-04-16T16:30:52.209Z,32.63
2018-04-16T16:35:51.580Z,42.81
2018-04-16T16:38:17.730Z,44.38
2018-04-16T16:40:43.765Z,46.12
2018-04-16T16:43:09.859Z,45.72
2018-04-16T16:45:35.884Z,46.71
2018-04-16T16:48:01.987Z,48.06
2018-04-16T16:50:28.040Z,48.84
2018-04-16T16:52:54.059Z,49.43
2018-04-16T16:55:20.106Z,49.76
2018-04-16T16:57:46.141Z,50.11
2018-04-16T17:00:12.189Z,50.27
2018-04-16T17:02:38.378Z,50.30
2018-04-16T17:05:04.440Z,51.03
2018-04-16T17:07:30.511Z,50.74
2018-04-16T17:09:56.525Z,51.23
2018-04-16T17:12:22.714Z,51.48
2018-04-16T17:14:48.812Z,51.71
2018-04-16T17:17:14.906Z,51.32
2018-04-16T17:19:40.973Z,51.37
2018-04-16T17:22:07.058Z,52.35
2018-04-16T17:24:33.181Z,52.94
2018-04-16T17:27:00.187Z,53.80
2018-04-16T17:29:26.191Z,54.60
2018-04-16T17:31:52.207Z,55.21
2018-04-16T17:34:18.297Z,55.21
2018-04-16T17:36:44.314Z,54.72
2018-04-16T17:39:10.329Z,55.11
2018-04-16T17:41:36.403Z,54.48
2018-04-16T17:44:02.418Z,54.87
2018-04-16T17:46:28.422Z,54.89
2018-04-16T17:48:54.453Z,54.97
2018-04-16T17:51:20.485Z,55.37
2018-04-16T17:53:46.491Z,55.83
2018-04-16T17:56:12.507Z,55.60
2018-04-16T17:58:38.536Z,55.72
2018-04-16T18:01:04.676Z,56.26
2018-04-16T18:03:30.810Z,56.17
2018-04-16T18:05:56.829Z,56.68
2018-04-16T18:08:22.913Z,56.73
2018-04-16T18:10:48.936Z,56.49
2018-04-16T18:13:15.054Z,57.23
2018-04-16T18:15:41.226Z,57.38
2018-04-16T18:18:07.342Z,57.85
2018-04-16T18:20:33.397Z,57.58
2018-04-16T18:22:59.901Z,58.37
2018-04-16T18:25:25.939Z,58.19
2018-04-16T18:27:51.955Z,58.74
2018-04-16T18:30:18.110Z,59.17
2018-04-16T18:32:44.188Z,58.93
2018-04-16T18:35:10.223Z,58.89
2018-04-16T18:37:36.255Z,59.42
2018-04-16T18:40:02.271Z,59.68
2018-04-16T18:42:28.333Z,59.72
2018-04-16T18:44:55.099Z,59.54
2018-04-16T18:47:21.262Z,59.10
2018-04-16T18:49:47.453Z,59.19
2018-04-16T18:52:13.449Z,59.37
2018-04-16T18:54:39.519Z,59.48
2018-04-16T18:57:05.671Z,59.63
2018-04-16T18:59:31.769Z,60.08
2018-04-16T19:01:57.782Z,60.64
2018-04-16T19:04:23.841Z,61.25
2018-04-16T19:06:49.877Z,61.58
2018-04-16T19:09:15.968Z,61.47
2018-04-16T19:11:42.089Z,61.32
2018-04-16T19:14:08.119Z,61.88
2018-04-16T19:16:34.235Z,61.85
2018-04-16T19:19:00.281Z,61.79
2018-04-16T19:21:32.217Z,61.80
2018-04-16T19:23:58.240Z,61.53
2018-04-16T19:26:24.681Z,62.01
2018-04-16T19:28:50.735Z,62.00
2018-04-16T19:31:16.813Z,62.25
2018-04-16T19:33:49.014Z,62.60
2018-04-16T19:36:16.075Z,64.12
2018-04-16T19:38:42.108Z,63.80
2018-04-16T19:41:08.532Z,64.41
2018-04-16T19:43:35.403Z,64.38
2018-04-16T19:46:01.757Z,64.57
2018-04-16T19:48:34.213Z,64.44
2018-04-16T19:51:00.764Z,64.88
2018-04-16T19:53:26.840Z,65.32
2018-04-16T19:55:58.877Z,64.74
2018-04-16T19:58:24.962Z,65.16
2018-04-16T20:00:51.154Z,65.63
2018-04-16T20:03:23.369Z,65.52
2018-04-16T20:05:49.852Z,66.49
2018-04-16T20:08:16.104Z,66.70
2018-04-16T20:10:42.339Z,67.12
2018-04-16T20:13:08.428Z,66.68
2018-04-16T20:15:34.662Z,67.18
2018-04-16T20:18:01.590Z,67.59
2018-04-16T20:20:27.994Z,68.31
2018-04-16T20:22:54.236Z,68.43
2018-04-16T20:25:20.313Z,67.79
2018-04-16T20:27:46.391Z,67.89
2018-04-16T20:30:13.685Z,68.94
2018-04-16T20:32:40.412Z,69.27
2018-04-16T20:35:06.542Z,68.97
2018-04-16T20:37:32.610Z,70.01
2018-04-16T20:39:58.753Z,69.34
2018-04-16T20:42:24.886Z,69.99
2018-04-16T20:44:50.926Z,69.56
2018-04-16T20:47:17.051Z,69.50
2018-04-16T20:49:43.162Z,70.13
2018-04-16T20:52:09.273Z,69.58
2018-04-16T20:54:35.315Z,69.83
2018-04-16T20:57:01.396Z,69.87
2018-04-16T20:59:27.587Z,70.67
2018-04-16T21:01:53.622Z,70.13
2018-04-16T21:04:19.691Z,69.66
2018-04-16T21:06:45.749Z,70.47
2018-04-16T21:09:11.768Z,70.07
2018-04-16T21:11:37.791Z,69.55
2018-04-16T21:14:03.817Z,70.09
2018-04-16T21:16:29.916Z,70.03
2018-04-16T21:18:55.932Z,70.03
2018-04-16T21:21:22.012Z,70.51
2018-04-16T21:23:48.008Z,70.78
2018-04-16T21:26:14.087Z,71.24
2018-04-16T21:28:40.130Z,71.43
2018-04-16T21:31:06.180Z,71.82
